sensor_id;sensor_type;location;lat;lon;timestamp;temperature;humidity
530;DHT22;251;48.704;9.210;2023-08-01T00:00:14;17.90;57.90
530;DHT22;251;48.704;9.210;2023-08-01T00:02:43;17.90;53.50
530;DHT22;251;48.704;9.210;2023-08-01T00:05:10;17.90;53.40
530;DHT22;251;48.704;9.210;2023-08-01T00:07:38;18.10;53.30
530;DHT22;251;48.704;9.210;2023-08-01T00:10:06;18.00;57.10
530;DHT22;251;48.704;9.210;2023-08-01T00:12:33;17.90;54.80
530;DHT22;251;48.704;9.210;2023-08-01T00:14:59;18.00;57.10
530;DHT22;251;48.704;9.210;2023-08-01T00:17:26;18.10;57.60
530;DHT22;251;48.704;9.210;2023-08-01T00:19:53;18.00;58.80
530;DHT22;251;48.704;9.210;2023-08-01T00:22:21;18.00;53.00
530;DHT22;251;48.704;9.210;2023-08-01T00:24:49;18.00;53.80
530;DHT22;251;48.704;9.210;2023-08-01T00:27:15;18.00;54.10
530;DHT22;251;48.704;9.210;2023-08-01T00:29:42;18.00;58.80
530;DHT22;251;48.704;9.210;2023-08-01T00:32:09;18.00;56.90
530;DHT22;251;48.704;9.210;2023-08-01T00:34:36;18.00;58.60
530;DHT22;251;48.704;9.210;2023-08-01T00:37:03;18.00;58.20
530;DHT22;251;48.704;9.210;2023-08-01T00:39:30;18.00;59.40
530;DHT22;251;48.704;9.210;2023-08-01T00:41:59;17.90;56.00
530;DHT22;251;48.704;9.210;2023-08-01T00:44:25;18.00;56.50
530;DHT22;251;48.704;9.210;2023-08-01T00:46:52;18.00;59.70
530;DHT22;251;48.704;9.210;2023-08-01T00:49:19;18.00;52.00
530;DHT22;251;48.704;9.210;2023-08-01T00:51:46;18.00;61.10
530;DHT22;251;48.704;9.210;2023-08-01T00:54:15;18.00;61.20
530;DHT22;251;48.704;9.210;2023-08-01T00:56:42;18.00;57.90
530;DHT22;251;48.704;9.210;2023-08-01T00:59:11;18.10;60.60
530;DHT22;251;48.704;9.210;2023-08-01T01:01:39;18.00;54.70
530;DHT22;251;48.704;9.210;2023-08-01T01:04:05;18.10;62.70
530;DHT22;251;48.704;9.210;2023-08-01T01:06:37;18.00;67.50
530;DHT22;251;48.704;9.210;2023-08-01T01:09:14;18.00;64.40
530;DHT22;251;48.704;9.210;2023-08-01T01:11:41;18.00;71.30
530;DHT22;251;48.704;9.210;2023-08-01T01:14:08;18.00;68.80
530;DHT22;251;48.704;9.210;2023-08-01T01:16:36;18.20;66.60
530;DHT22;251;48.704;9.210;2023-08-01T01:19:08;18.00;63.20
530;DHT22;251;48.704;9.210;2023-08-01T01:21:37;18.00;62.80
530;DHT22;251;48.704;9.210;2023-08-01T01:24:07;18.00;63.80
530;DHT22;251;48.704;9.210;2023-08-01T01:26:34;18.00;63.00
530;DHT22;251;48.704;9.210;2023-08-01T01:29:03;18.00;56.20
530;DHT22;251;48.704;9.210;2023-08-01T01:31:31;18.00;55.40
530;DHT22;251;48.704;9.210;2023-08-01T01:33:59;18.00;52.80
530;DHT22;251;48.704;9.210;2023-08-01T01:36:26;18.00;51.50
530;DHT22;251;48.704;9.210;2023-08-01T01:38:54;17.90;53.90
530;DHT22;251;48.704;9.210;2023-08-01T01:41:21;17.90;55.30
530;DHT22;251;48.704;9.210;2023-08-01T01:43:48;17.80;59.00
530;DHT22;251;48.704;9.210;2023-08-01T01:46:14;17.70;61.40
530;DHT22;251;48.704;9.210;2023-08-01T01:48:41;17.70;61.40
530;DHT22;251;48.704;9.210;2023-08-01T01:51:08;17.60;65.20
530;DHT22;251;48.704;9.210;2023-08-01T01:53:35;17.70;66.40
530;DHT22;251;48.704;9.210;2023-08-01T01:56:03;17.70;66.50
530;DHT22;251;48.704;9.210;2023-08-01T01:58:30;17.70;66.90
530;DHT22;251;48.704;9.210;2023-08-01T02:00:57;17.60;77.00
530;DHT22;251;48.704;9.210;2023-08-01T02:03:24;17.60;80.60
530;DHT22;251;48.704;9.210;2023-08-01T02:05:50;17.50;73.20
530;DHT22;251;48.704;9.210;2023-08-01T02:08:18;17.60;71.90
530;DHT22;251;48.704;9.210;2023-08-01T02:10:45;17.60;72.70
530;DHT22;251;48.704;9.210;2023-08-01T02:13:13;17.60;66.70
530;DHT22;251;48.704;9.210;2023-08-01T02:15:40;17.60;69.70
530;DHT22;251;48.704;9.210;2023-08-01T02:18:07;17.60;68.30
530;DHT22;251;48.704;9.210;2023-08-01T02:20:34;17.60;75.50
530;DHT22;251;48.704;9.210;2023-08-01T02:23:00;17.70;73.50
530;DHT22;251;48.704;9.210;2023-08-01T02:25:27;17.70;70.00
530;DHT22;251;48.704;9.210;2023-08-01T02:27:54;17.70;68.40
530;DHT22;251;48.704;9.210;2023-08-01T02:30:22;17.70;68.60
530;DHT22;251;48.704;9.210;2023-08-01T02:32:49;17.70;71.00
530;DHT22;251;48.704;9.210;2023-08-01T02:35:16;17.50;69.40
530;DHT22;251;48.704;9.210;2023-08-01T02:37:42;17.80;71.10
530;DHT22;251;48.704;9.210;2023-08-01T02:40:10;17.70;70.20
530;DHT22;251;48.704;9.210;2023-08-01T02:42:37;17.70;64.20
530;DHT22;251;48.704;9.210;2023-08-01T02:45:05;17.70;68.30
530;DHT22;251;48.704;9.210;2023-08-01T02:47:33;17.70;64.20
530;DHT22;251;48.704;9.210;2023-08-01T02:50:00;17.90;64.40
530;DHT22;251;48.704;9.210;2023-08-01T02:52:27;17.70;61.80
530;DHT22;251;48.704;9.210;2023-08-01T02:54:55;17.60;66.60
530;DHT22;251;48.704;9.210;2023-08-01T02:57:21;17.70;58.60
530;DHT22;251;48.704;9.210;2023-08-01T02:59:48;17.80;67.90
530;DHT22;251;48.704;9.210;2023-08-01T03:02:15;17.70;66.00
530;DHT22;251;48.704;9.210;2023-08-01T03:04:43;17.80;68.40
530;DHT22;251;48.704;9.210;2023-08-01T03:07:10;17.90;66.40
530;DHT22;251;48.704;9.210;2023-08-01T03:09:37;17.90;68.80
530;DHT22;251;48.704;9.210;2023-08-01T03:12:04;17.80;67.50
530;DHT22;251;48.704;9.210;2023-08-01T03:14:31;17.80;62.10
530;DHT22;251;48.704;9.210;2023-08-01T03:16:57;17.80;62.10
530;DHT22;251;48.704;9.210;2023-08-01T03:19:24;17.80;62.10
530;DHT22;251;48.704;9.210;2023-08-01T03:21:52;17.80;61.00
530;DHT22;251;48.704;9.210;2023-08-01T03:24:19;17.80;58.50
530;DHT22;251;48.704;9.210;2023-08-01T03:26:46;17.80;58.50
530;DHT22;251;48.704;9.210;2023-08-01T03:29:14;17.80;59.20
530;DHT22;251;48.704;9.210;2023-08-01T03:31:41;17.90;56.10
530;DHT22;251;48.704;9.210;2023-08-01T03:34:08;17.90;54.20
530;DHT22;251;48.704;9.210;2023-08-01T03:36:35;17.90;56.00
530;DHT22;251;48.704;9.210;2023-08-01T03:39:04;17.90;52.10
530;DHT22;251;48.704;9.210;2023-08-01T03:41:31;17.90;50.30
530;DHT22;251;48.704;9.210;2023-08-01T03:43:58;17.90;49.30
530;DHT22;251;48.704;9.210;2023-08-01T03:46:25;18.00;49.00
530;DHT22;251;48.704;9.210;2023-08-01T03:48:52;18.10;50.90
530;DHT22;251;48.704;9.210;2023-08-01T03:51:19;18.00;46.80
530;DHT22;251;48.704;9.210;2023-08-01T03:53:46;18.10;50.10
530;DHT22;251;48.704;9.210;2023-08-01T03:56:14;18.10;46.80
530;DHT22;251;48.704;9.210;2023-08-01T03:58:41;18.10;45.70
530;DHT22;251;48.704;9.210;2023-08-01T04:01:08;18.20;44.90
530;DHT22;251;48.704;9.210;2023-08-01T04:03:36;18.20;45.80
530;DHT22;251;48.704;9.210;2023-08-01T04:06:04;18.20;45.00
530;DHT22;251;48.704;9.210;2023-08-01T04:08:31;18.20;44.70
530;DHT22;251;48.704;9.210;2023-08-01T04:10:58;18.20;47.00
530;DHT22;251;48.704;9.210;2023-08-01T04:13:26;18.20;45.20
530;DHT22;251;48.704;9.210;2023-08-01T04:15:53;18.20;44.70
530;DHT22;251;48.704;9.210;2023-08-01T04:18:19;18.20;50.80
530;DHT22;251;48.704;9.210;2023-08-01T04:20:46;18.20;44.90
530;DHT22;251;48.704;9.210;2023-08-01T04:23:13;18.20;46.60
530;DHT22;251;48.704;9.210;2023-08-01T04:25:41;18.20;47.00
530;DHT22;251;48.704;9.210;2023-08-01T04:28:07;18.20;48.80
530;DHT22;251;48.704;9.210;2023-08-01T04:30:36;18.20;46.10
530;DHT22;251;48.704;9.210;2023-08-01T04:33:04;18.10;47.20
530;DHT22;251;48.704;9.210;2023-08-01T04:35:31;18.20;45.60
530;DHT22;251;48.704;9.210;2023-08-01T04:37:57;18.20;46.90
530;DHT22;251;48.704;9.210;2023-08-01T04:40:24;18.20;43.30
530;DHT22;251;48.704;9.210;2023-08-01T04:42:51;18.20;43.20
530;DHT22;251;48.704;9.210;2023-08-01T04:45:18;18.20;43.50
530;DHT22;251;48.704;9.210;2023-08-01T04:47:46;18.20;41.20
530;DHT22;251;48.704;9.210;2023-08-01T04:50:13;18.20;40.70
530;DHT22;251;48.704;9.210;2023-08-01T04:52:40;18.20;41.00
530;DHT22;251;48.704;9.210;2023-08-01T04:55:07;18.20;39.00
530;DHT22;251;48.704;9.210;2023-08-01T04:57:34;18.30;39.40
530;DHT22;251;48.704;9.210;2023-08-01T05:00:01;18.30;37.80
530;DHT22;251;48.704;9.210;2023-08-01T05:02:28;18.30;37.90
530;DHT22;251;48.704;9.210;2023-08-01T05:04:57;18.30;38.50
530;DHT22;251;48.704;9.210;2023-08-01T05:07:23;18.30;39.20
530;DHT22;251;48.704;9.210;2023-08-01T05:09:50;18.30;38.60
530;DHT22;251;48.704;9.210;2023-08-01T05:12:17;18.30;39.10
530;DHT22;251;48.704;9.210;2023-08-01T05:14:44;18.30;39.20
530;DHT22;251;48.704;9.210;2023-08-01T05:17:10;18.30;38.40
530;DHT22;251;48.704;9.210;2023-08-01T05:19:37;18.30;39.00
530;DHT22;251;48.704;9.210;2023-08-01T05:22:05;18.50;37.40
530;DHT22;251;48.704;9.210;2023-08-01T05:24:32;18.30;35.30
530;DHT22;251;48.704;9.210;2023-08-01T05:26:59;18.40;35.40
530;DHT22;251;48.704;9.210;2023-08-01T05:29:26;18.40;35.70
530;DHT22;251;48.704;9.210;2023-08-01T05:31:52;18.40;32.80
530;DHT22;251;48.704;9.210;2023-08-01T05:34:19;18.40;33.40
530;DHT22;251;48.704;9.210;2023-08-01T05:36:46;18.50;34.80
530;DHT22;251;48.704;9.210;2023-08-01T05:39:14;18.50;33.60
530;DHT22;251;48.704;9.210;2023-08-01T05:41:41;18.50;31.40
530;DHT22;251;48.704;9.210;2023-08-01T05:44:08;18.50;32.30
530;DHT22;251;48.704;9.210;2023-08-01T05:46:34;18.50;31.80
530;DHT22;251;48.704;9.210;2023-08-01T05:49:01;18.50;29.80
530;DHT22;251;48.704;9.210;2023-08-01T05:51:28;18.60;31.30
530;DHT22;251;48.704;9.210;2023-08-01T05:53:55;18.60;31.00
530;DHT22;251;48.704;9.210;2023-08-01T05:56:23;18.60;29.70
530;DHT22;251;48.704;9.210;2023-08-01T05:58:50;18.70;28.90
530;DHT22;251;48.704;9.210;2023-08-01T06:01:17;18.70;28.10
530;DHT22;251;48.704;9.210;2023-08-01T06:03:45;18.80;28.50
530;DHT22;251;48.704;9.210;2023-08-01T06:06:11;18.80;28.20
530;DHT22;251;48.704;9.210;2023-08-01T06:08:38;18.90;28.30
530;DHT22;251;48.704;9.210;2023-08-01T06:11:05;18.90;27.00
530;DHT22;251;48.704;9.210;2023-08-01T06:13:34;18.90;26.90
530;DHT22;251;48.704;9.210;2023-08-01T06:16:00;18.90;26.90
530;DHT22;251;48.704;9.210;2023-08-01T06:18:27;18.90;27.40
530;DHT22;251;48.704;9.210;2023-08-01T06:20:54;18.90;27.00
530;DHT22;251;48.704;9.210;2023-08-01T06:23:21;18.90;27.70
530;DHT22;251;48.704;9.210;2023-08-01T06:25:47;18.90;27.90
530;DHT22;251;48.704;9.210;2023-08-01T06:28:14;18.90;26.40
530;DHT22;251;48.704;9.210;2023-08-01T06:30:44;18.90;26.10
530;DHT22;251;48.704;9.210;2023-08-01T06:33:11;18.90;26.20
530;DHT22;251;48.704;9.210;2023-08-01T06:35:38;18.90;26.30
530;DHT22;251;48.704;9.210;2023-08-01T06:38:05;18.90;25.90
530;DHT22;251;48.704;9.210;2023-08-01T06:40:31;18.90;25.80
530;DHT22;251;48.704;9.210;2023-08-01T06:42:58;18.90;26.00
530;DHT22;251;48.704;9.210;2023-08-01T06:45:25;18.90;27.20
530;DHT22;251;48.704;9.210;2023-08-01T06:47:53;18.80;26.40
530;DHT22;251;48.704;9.210;2023-08-01T06:50:21;18.80;26.60
530;DHT22;251;48.704;9.210;2023-08-01T06:52:47;18.70;28.10
530;DHT22;251;48.704;9.210;2023-08-01T06:55:17;18.70;28.90
530;DHT22;251;48.704;9.210;2023-08-01T06:57:43;18.60;29.20
530;DHT22;251;48.704;9.210;2023-08-01T07:00:11;18.60;32.80
530;DHT22;251;48.704;9.210;2023-08-01T07:02:38;18.40;34.00
530;DHT22;251;48.704;9.210;2023-08-01T07:05:07;18.40;33.90
530;DHT22;251;48.704;9.210;2023-08-01T07:07:34;18.30;32.80
530;DHT22;251;48.704;9.210;2023-08-01T07:10:01;18.40;33.00
530;DHT22;251;48.704;9.210;2023-08-01T07:12:27;18.40;32.20
530;DHT22;251;48.704;9.210;2023-08-01T07:14:54;18.50;32.40
530;DHT22;251;48.704;9.210;2023-08-01T07:17:21;18.50;31.80
530;DHT22;251;48.704;9.210;2023-08-01T07:19:48;18.60;31.00
530;DHT22;251;48.704;9.210;2023-08-01T07:22:16;18.60;29.00
530;DHT22;251;48.704;9.210;2023-08-01T07:24:43;18.70;33.70
530;DHT22;251;48.704;9.210;2023-08-01T07:27:09;18.70;29.80
530;DHT22;251;48.704;9.210;2023-08-01T07:29:37;18.60;30.50
530;DHT22;251;48.704;9.210;2023-08-01T07:32:05;18.80;34.70
530;DHT22;251;48.704;9.210;2023-08-01T07:34:32;18.50;33.00
530;DHT22;251;48.704;9.210;2023-08-01T07:36:58;18.40;32.90
530;DHT22;251;48.704;9.210;2023-08-01T07:39:26;18.30;33.00
530;DHT22;251;48.704;9.210;2023-08-01T07:41:55;18.30;34.70
530;DHT22;251;48.704;9.210;2023-08-01T07:44:24;18.20;35.50
530;DHT22;251;48.704;9.210;2023-08-01T07:46:51;18.20;37.20
530;DHT22;251;48.704;9.210;2023-08-01T07:49:17;18.20;38.50
530;DHT22;251;48.704;9.210;2023-08-01T07:51:44;18.10;39.70
530;DHT22;251;48.704;9.210;2023-08-01T07:54:11;18.00;45.80
530;DHT22;251;48.704;9.210;2023-08-01T07:56:39;17.60;47.90
530;DHT22;251;48.704;9.210;2023-08-01T07:59:06;17.60;52.90
530;DHT22;251;48.704;9.210;2023-08-01T08:01:32;17.30;59.40
530;DHT22;251;48.704;9.210;2023-08-01T08:03:59;17.40;72.20
530;DHT22;251;48.704;9.210;2023-08-01T08:06:26;17.10;73.50
530;DHT22;251;48.704;9.210;2023-08-01T08:08:53;17.20;77.40
530;DHT22;251;48.704;9.210;2023-08-01T08:11:19;16.90;88.00
530;DHT22;251;48.704;9.210;2023-08-01T08:13:47;17.00;92.50
530;DHT22;251;48.704;9.210;2023-08-01T08:16:14;16.60;91.60
530;DHT22;251;48.704;9.210;2023-08-01T08:18:41;16.80;92.50
530;DHT22;251;48.704;9.210;2023-08-01T08:21:08;16.70;97.50
530;DHT22;251;48.704;9.210;2023-08-01T08:23:35;16.70;99.20
530;DHT22;251;48.704;9.210;2023-08-01T08:26:01;16.80;99.30
530;DHT22;251;48.704;9.210;2023-08-01T08:28:31;16.60;99.90
530;DHT22;251;48.704;9.210;2023-08-01T08:31:00;16.60;99.90
530;DHT22;251;48.704;9.210;2023-08-01T08:33:28;16.60;99.90
530;DHT22;251;48.704;9.210;2023-08-01T08:35:55;16.60;99.90
530;DHT22;251;48.704;9.210;2023-08-01T08:38:21;16.60;99.90
530;DHT22;251;48.704;9.210;2023-08-01T08:40:55;16.50;99.90
530;DHT22;251;48.704;9.210;2023-08-01T08:43:26;16.70;99.90
530;DHT22;251;48.704;9.210;2023-08-01T08:45:57;16.90;99.90
530;DHT22;251;48.704;9.210;2023-08-01T08:48:28;17.20;99.90
530;DHT22;251;48.704;9.210;2023-08-01T08:50:57;17.30;99.90
530;DHT22;251;48.704;9.210;2023-08-01T08:53:24;17.50;99.90
530;DHT22;251;48.704;9.210;2023-08-01T08:55:52;17.60;99.90
530;DHT22;251;48.704;9.210;2023-08-01T08:58:19;17.70;99.90
530;DHT22;251;48.704;9.210;2023-08-01T09:00:46;18.00;99.90
530;DHT22;251;48.704;9.210;2023-08-01T09:03:13;18.00;99.90
530;DHT22;251;48.704;9.210;2023-08-01T09:05:45;18.30;99.90
530;DHT22;251;48.704;9.210;2023-08-01T09:08:17;18.10;96.70
530;DHT22;251;48.704;9.210;2023-08-01T09:10:44;18.10;96.80
530;DHT22;251;48.704;9.210;2023-08-01T09:13:11;18.20;95.30
530;DHT22;251;48.704;9.210;2023-08-01T09:15:40;18.10;92.40
530;DHT22;251;48.704;9.210;2023-08-01T09:18:07;18.10;94.70
530;DHT22;251;48.704;9.210;2023-08-01T09:20:42;18.10;92.70
530;DHT22;251;48.704;9.210;2023-08-01T09:23:09;18.10;92.30
530;DHT22;251;48.704;9.210;2023-08-01T09:25:37;18.10;91.50
530;DHT22;251;48.704;9.210;2023-08-01T09:28:15;18.00;93.10
530;DHT22;251;48.704;9.210;2023-08-01T09:30:46;18.00;93.40
530;DHT22;251;48.704;9.210;2023-08-01T09:33:13;18.10;94.20
530;DHT22;251;48.704;9.210;2023-08-01T09:35:41;18.10;96.20
530;DHT22;251;48.704;9.210;2023-08-01T09:38:10;18.10;94.10
530;DHT22;251;48.704;9.210;2023-08-01T09:40:37;18.20;97.10
530;DHT22;251;48.704;9.210;2023-08-01T09:43:04;18.30;90.80
530;DHT22;251;48.704;9.210;2023-08-01T09:45:31;18.30;86.00
530;DHT22;251;48.704;9.210;2023-08-01T09:47:59;18.30;85.50
530;DHT22;251;48.704;9.210;2023-08-01T09:50:27;18.40;95.70
530;DHT22;251;48.704;9.210;2023-08-01T09:52:55;18.40;85.50
530;DHT22;251;48.704;9.210;2023-08-01T09:55:26;18.40;88.60
530;DHT22;251;48.704;9.210;2023-08-01T09:57:53;18.40;96.10
530;DHT22;251;48.704;9.210;2023-08-01T10:00:22;18.40;86.50
530;DHT22;251;48.704;9.210;2023-08-01T10:02:50;18.40;91.00
530;DHT22;251;48.704;9.210;2023-08-01T10:05:19;18.50;99.90
530;DHT22;251;48.704;9.210;2023-08-01T10:07:47;18.60;91.30
530;DHT22;251;48.704;9.210;2023-08-01T10:10:17;18.70;89.10
530;DHT22;251;48.704;9.210;2023-08-01T10:12:45;18.70;89.60
530;DHT22;251;48.704;9.210;2023-08-01T10:15:14;18.80;90.20
530;DHT22;251;48.704;9.210;2023-08-01T10:17:41;18.80;79.40
530;DHT22;251;48.704;9.210;2023-08-01T10:20:09;18.90;88.70
530;DHT22;251;48.704;9.210;2023-08-01T10:22:37;18.90;81.50
530;DHT22;251;48.704;9.210;2023-08-01T10:25:05;18.90;81.80
530;DHT22;251;48.704;9.210;2023-08-01T10:27:35;19.00;84.80
530;DHT22;251;48.704;9.210;2023-08-01T10:30:03;19.10;82.90
530;DHT22;251;48.704;9.210;2023-08-01T10:32:32;19.10;79.50
530;DHT22;251;48.704;9.210;2023-08-01T10:34:59;19.20;85.40
530;DHT22;251;48.704;9.210;2023-08-01T10:37:26;19.20;80.60
530;DHT22;251;48.704;9.210;2023-08-01T10:39:57;19.20;75.60
530;DHT22;251;48.704;9.210;2023-08-01T10:42:24;19.20;71.70
530;DHT22;251;48.704;9.210;2023-08-01T10:44:52;19.30;74.80
530;DHT22;251;48.704;9.210;2023-08-01T10:47:26;19.40;81.10
530;DHT22;251;48.704;9.210;2023-08-01T10:49:53;19.50;82.40
530;DHT22;251;48.704;9.210;2023-08-01T10:52:21;19.60;67.60
530;DHT22;251;48.704;9.210;2023-08-01T10:54:56;19.70;66.00
530;DHT22;251;48.704;9.210;2023-08-01T10:57:24;19.70;68.80
530;DHT22;251;48.704;9.210;2023-08-01T10:59:57;19.90;64.20
530;DHT22;251;48.704;9.210;2023-08-01T11:02:26;20.20;69.40
530;DHT22;251;48.704;9.210;2023-08-01T11:04:57;20.40;56.70
530;DHT22;251;48.704;9.210;2023-08-01T11:07:24;20.40;56.00
530;DHT22;251;48.704;9.210;2023-08-01T11:09:50;20.50;49.20
530;DHT22;251;48.704;9.210;2023-08-01T11:12:27;20.40;46.70
530;DHT22;251;48.704;9.210;2023-08-01T11:15:00;20.30;55.30
530;DHT22;251;48.704;9.210;2023-08-01T11:17:27;20.20;46.90
530;DHT22;251;48.704;9.210;2023-08-01T11:20:01;20.10;41.60
530;DHT22;251;48.704;9.210;2023-08-01T11:22:28;20.20;35.90
530;DHT22;251;48.704;9.210;2023-08-01T11:24:55;20.40;34.60
530;DHT22;251;48.704;9.210;2023-08-01T11:27:22;20.50;34.20
530;DHT22;251;48.704;9.210;2023-08-01T11:29:49;20.60;29.30
530;DHT22;251;48.704;9.210;2023-08-01T11:32:18;20.70;26.70
530;DHT22;251;48.704;9.210;2023-08-01T11:34:46;20.90;25.70
530;DHT22;251;48.704;9.210;2023-08-01T11:37:15;20.90;24.20
530;DHT22;251;48.704;9.210;2023-08-01T11:39:42;21.00;25.70
530;DHT22;251;48.704;9.210;2023-08-01T11:42:14;21.00;21.80
530;DHT22;251;48.704;9.210;2023-08-01T11:44:41;20.80;20.50
530;DHT22;251;48.704;9.210;2023-08-01T11:47:11;20.70;19.10
530;DHT22;251;48.704;9.210;2023-08-01T11:49:44;20.70;17.80
530;DHT22;251;48.704;9.210;2023-08-01T11:52:11;20.80;19.40
530;DHT22;251;48.704;9.210;2023-08-01T11:54:48;21.00;18.70
530;DHT22;251;48.704;9.210;2023-08-01T11:57:14;21.20;17.10
530;DHT22;251;48.704;9.210;2023-08-01T11:59:49;21.40;16.60
530;DHT22;251;48.704;9.210;2023-08-01T12:02:22;21.50;15.70
530;DHT22;251;48.704;9.210;2023-08-01T12:04:51;21.70;14.10
530;DHT22;251;48.704;9.210;2023-08-01T12:07:18;21.80;14.90
530;DHT22;251;48.704;9.210;2023-08-01T12:09:55;21.90;14.30
530;DHT22;251;48.704;9.210;2023-08-01T12:12:22;21.80;13.40
530;DHT22;251;48.704;9.210;2023-08-01T12:14:48;21.80;12.20
530;DHT22;251;48.704;9.210;2023-08-01T12:17:15;21.90;11.80
530;DHT22;251;48.704;9.210;2023-08-01T12:19:42;22.10;12.30
530;DHT22;251;48.704;9.210;2023-08-01T12:22:10;22.40;10.90
530;DHT22;251;48.704;9.210;2023-08-01T12:24:37;22.40;9.90
530;DHT22;251;48.704;9.210;2023-08-01T12:27:05;22.60;12.50
530;DHT22;251;48.704;9.210;2023-08-01T12:29:32;22.70;9.10
530;DHT22;251;48.704;9.210;2023-08-01T12:31:58;22.80;9.60
530;DHT22;251;48.704;9.210;2023-08-01T12:34:25;23.00;8.80
530;DHT22;251;48.704;9.210;2023-08-01T12:36:52;23.30;7.70
530;DHT22;251;48.704;9.210;2023-08-01T12:39:20;23.50;6.30
530;DHT22;251;48.704;9.210;2023-08-01T12:41:48;23.60;7.10
530;DHT22;251;48.704;9.210;2023-08-01T12:44:15;23.40;6.30
530;DHT22;251;48.704;9.210;2023-08-01T12:46:43;23.30;6.30
530;DHT22;251;48.704;9.210;2023-08-01T12:49:09;23.40;6.30
530;DHT22;251;48.704;9.210;2023-08-01T12:51:36;23.50;5.50
530;DHT22;251;48.704;9.210;2023-08-01T12:54:04;23.40;6.30
530;DHT22;251;48.704;9.210;2023-08-01T12:56:33;23.70;8.10
530;DHT22;251;48.704;9.210;2023-08-01T12:59:00;23.90;6.90
530;DHT22;251;48.704;9.210;2023-08-01T13:01:27;24.00;5.90
530;DHT22;251;48.704;9.210;2023-08-01T13:03:53;24.00;5.40
530;DHT22;251;48.704;9.210;2023-08-01T13:06:20;24.20;5.80
530;DHT22;251;48.704;9.210;2023-08-01T13:08:47;24.20;6.60
530;DHT22;251;48.704;9.210;2023-08-01T13:11:14;24.00;5.70
530;DHT22;251;48.704;9.210;2023-08-01T13:13:42;24.40;4.60
530;DHT22;251;48.704;9.210;2023-08-01T13:16:10;24.70;3.10
530;DHT22;251;48.704;9.210;2023-08-01T13:18:37;25.00;2.00
530;DHT22;251;48.704;9.210;2023-08-01T13:21:09;25.50;1.20
530;DHT22;251;48.704;9.210;2023-08-01T13:23:36;25.70;1.00
530;DHT22;251;48.704;9.210;2023-08-01T13:26:02;25.90;1.00
530;DHT22;251;48.704;9.210;2023-08-01T13:28:29;26.20;2.30
530;DHT22;251;48.704;9.210;2023-08-01T13:30:57;26.50;1.00
530;DHT22;251;48.704;9.210;2023-08-01T13:33:24;26.70;1.00
530;DHT22;251;48.704;9.210;2023-08-01T13:35:51;26.90;1.00
530;DHT22;251;48.704;9.210;2023-08-01T13:38:19;27.10;1.00
530;DHT22;251;48.704;9.210;2023-08-01T13:40:45;27.10;1.00
530;DHT22;251;48.704;9.210;2023-08-01T13:43:12;27.30;1.00
530;DHT22;251;48.704;9.210;2023-08-01T13:45:39;27.30;1.00
530;DHT22;251;48.704;9.210;2023-08-01T13:48:08;27.20;1.00
530;DHT22;251;48.704;9.210;2023-08-01T13:50:34;26.60;1.00
530;DHT22;251;48.704;9.210;2023-08-01T13:53:01;26.30;1.00
530;DHT22;251;48.704;9.210;2023-08-01T13:55:28;26.30;1.00
530;DHT22;251;48.704;9.210;2023-08-01T13:57:55;26.50;1.00
530;DHT22;251;48.704;9.210;2023-08-01T14:00:22;26.90;1.00
530;DHT22;251;48.704;9.210;2023-08-01T14:02:49;27.30;1.00
530;DHT22;251;48.704;9.210;2023-08-01T14:05:18;27.80;1.00
530;DHT22;251;48.704;9.210;2023-08-01T14:07:45;28.40;1.00
530;DHT22;251;48.704;9.210;2023-08-01T14:10:12;28.20;1.00
530;DHT22;251;48.704;9.210;2023-08-01T14:12:40;28.30;1.00
530;DHT22;251;48.704;9.210;2023-08-01T14:15:07;27.90;1.00
530;DHT22;251;48.704;9.210;2023-08-01T14:17:34;27.80;1.00
530;DHT22;251;48.704;9.210;2023-08-01T14:20:01;27.40;1.00
530;DHT22;251;48.704;9.210;2023-08-01T14:22:31;27.60;1.00
530;DHT22;251;48.704;9.210;2023-08-01T14:24:58;27.80;1.00
530;DHT22;251;48.704;9.210;2023-08-01T14:27:25;27.40;1.00
530;DHT22;251;48.704;9.210;2023-08-01T14:29:52;27.00;1.00
530;DHT22;251;48.704;9.210;2023-08-01T14:32:19;26.60;1.00
530;DHT22;251;48.704;9.210;2023-08-01T14:34:46;26.60;1.00
530;DHT22;251;48.704;9.210;2023-08-01T14:37:12;26.20;1.00
530;DHT22;251;48.704;9.210;2023-08-01T14:39:41;26.00;1.00
530;DHT22;251;48.704;9.210;2023-08-01T14:42:07;26.00;1.00
530;DHT22;251;48.704;9.210;2023-08-01T14:44:34;26.10;1.00
530;DHT22;251;48.704;9.210;2023-08-01T14:47:01;26.30;1.00
530;DHT22;251;48.704;9.210;2023-08-01T14:49:28;26.50;1.00
530;DHT22;251;48.704;9.210;2023-08-01T14:51:55;26.80;1.00
530;DHT22;251;48.704;9.210;2023-08-01T14:54:21;27.20;1.00
530;DHT22;251;48.704;9.210;2023-08-01T14:56:52;27.80;1.00
530;DHT22;251;48.704;9.210;2023-08-01T14:59:18;28.20;1.00
530;DHT22;251;48.704;9.210;2023-08-01T15:01:45;28.10;1.00
530;DHT22;251;48.704;9.210;2023-08-01T15:04:12;27.90;1.00
530;DHT22;251;48.704;9.210;2023-08-01T15:06:39;28.10;1.00
530;DHT22;251;48.704;9.210;2023-08-01T15:09:06;28.40;1.00
530;DHT22;251;48.704;9.210;2023-08-01T15:11:33;28.30;1.00
530;DHT22;251;48.704;9.210;2023-08-01T15:14:02;28.10;1.00
530;DHT22;251;48.704;9.210;2023-08-01T15:16:29;27.90;1.00
530;DHT22;251;48.704;9.210;2023-08-01T15:18:56;27.50;1.00
530;DHT22;251;48.704;9.210;2023-08-01T15:21:23;27.30;1.00
530;DHT22;251;48.704;9.210;2023-08-01T15:23:52;26.80;1.00
530;DHT22;251;48.704;9.210;2023-08-01T15:26:19;26.20;1.00
530;DHT22;251;48.704;9.210;2023-08-01T15:28:46;25.90;1.00
530;DHT22;251;48.704;9.210;2023-08-01T15:31:14;25.60;1.00
530;DHT22;251;48.704;9.210;2023-08-01T15:33:41;25.20;1.00
530;DHT22;251;48.704;9.210;2023-08-01T15:36:09;24.80;1.00
530;DHT22;251;48.704;9.210;2023-08-01T15:38:37;24.80;1.10
530;DHT22;251;48.704;9.210;2023-08-01T15:41:04;24.60;1.70
530;DHT22;251;48.704;9.210;2023-08-01T15:43:34;25.00;1.30
530;DHT22;251;48.704;9.210;2023-08-01T15:46:02;25.40;1.00
530;DHT22;251;48.704;9.210;2023-08-01T15:48:30;26.30;1.00
530;DHT22;251;48.704;9.210;2023-08-01T15:50:57;26.50;1.00
530;DHT22;251;48.704;9.210;2023-08-01T15:53:24;27.00;1.00
530;DHT22;251;48.704;9.210;2023-08-01T15:55:55;26.90;1.00
530;DHT22;251;48.704;9.210;2023-08-01T15:58:22;26.70;1.00
530;DHT22;251;48.704;9.210;2023-08-01T16:00:49;26.90;1.00
530;DHT22;251;48.704;9.210;2023-08-01T16:03:16;26.50;1.00
530;DHT22;251;48.704;9.210;2023-08-01T16:05:44;26.50;1.00
530;DHT22;251;48.704;9.210;2023-08-01T16:08:11;27.30;1.00
530;DHT22;251;48.704;9.210;2023-08-01T16:10:40;27.40;1.00
530;DHT22;251;48.704;9.210;2023-08-01T16:13:07;27.20;1.00
530;DHT22;251;48.704;9.210;2023-08-01T16:15:34;27.80;1.00
530;DHT22;251;48.704;9.210;2023-08-01T16:18:01;27.10;1.00
530;DHT22;251;48.704;9.210;2023-08-01T16:20:28;27.50;1.00
530;DHT22;251;48.704;9.210;2023-08-01T16:22:56;28.20;1.00
530;DHT22;251;48.704;9.210;2023-08-01T16:25:23;28.70;1.00
530;DHT22;251;48.704;9.210;2023-08-01T16:27:50;28.30;1.00
530;DHT22;251;48.704;9.210;2023-08-01T16:30:17;27.30;1.00
530;DHT22;251;48.704;9.210;2023-08-01T16:32:44;26.40;1.00
530;DHT22;251;48.704;9.210;2023-08-01T16:35:11;25.80;1.00
530;DHT22;251;48.704;9.210;2023-08-01T16:37:38;25.20;1.00
530;DHT22;251;48.704;9.210;2023-08-01T16:40:08;24.60;1.00